2012-01-08から1日間の記事一覧

iphone3GS -> 4S機種変更

pc

した。 17:00に帰ってきたが、設定が終わったのは20:00頃になった。 困難①:iTunesの3GSバックアップからの復元にてこずる 1回目は、4Sに復元したアプリがフォルダの中に収納されておらず、バラバラになった。MMSのメールデータも空だったが、これが仕様なのかもしれんと思っ…

Aviation Digital Data Service (ADDS)

Aviation Digital Data Service (ADDS)Output produced by TAFs form (0427 UTC 08 January 2012) found at http://aviationweather.gov/adds/tafs/ RJFR 080400Z 07004KT 030V100 9999 FEW030 09/02 Q1027 RJFR 080300Z 08004KT 030V110 9999 FEW030 08/01 …